Time;durP1;ratioP1;P1;durP2;ratioP2;P2;SDS_P1;SDS_P2;PMS_P1;PMS_P2;Temp;Humidity;BMP_temperature;BMP_pressure;BME280_temperature;BME280_humidity;BME280_pressure;Samples;Min_cycle;Max_cycle;Signal;HPM_P1;HPM_P2
2021/10/08 00:02:10;;;;;;;27.80;11.47;;;10.40;99.90;;;;;;6213180;23;20161;-84
2021/10/08 00:04:36;;;;;;;31.50;11.70;;;10.40;99.90;;;;;;6212206;23;20201;-84
2021/10/08 00:07:03;;;;;;;33.63;9.30;;;10.30;99.90;;;;;;6187551;23;20193;-85
2021/10/08 00:09:29;;;;;;;25.97;11.90;;;10.40;99.90;;;;;;6237713;22;20205;-85
2021/10/08 00:11:56;;;;;;;24.53;10.53;;;10.50;99.90;;;;;;6237516;22;20619;-85
2021/10/08 00:14:26;;;;;;;44.77;11.33;;;10.50;99.90;;;;;;6240099;22;20217;-85
2021/10/08 00:16:53;;;;;;;21.37;11.33;;;10.50;99.90;;;;;;6212568;23;20284;-86
2021/10/08 00:19:20;;;;;;;52.13;12.30;;;10.50;99.90;;;;;;6237305;22;20193;-85
2021/10/08 00:21:46;;;;;;;35.03;9.80;;;10.40;99.90;;;;;;6237628;22;20193;-85
2021/10/08 00:24:12;;;;;;;39.17;11.70;;;10.40;99.90;;;;;;6212148;23;20619;-85
2021/10/08 00:26:40;;;;;;;15.67;8.07;;;10.40;99.90;;;;;;6212651;22;20548;-86
2021/10/08 00:29:09;;;;;;;17.43;10.53;;;10.20;99.90;;;;;;6213653;23;20638;-84
2021/10/08 00:31:35;;;;;;;22.47;8.27;;;10.10;99.90;;;;;;6212064;23;20689;-85
2021/10/08 00:34:01;;;;;;;137.77;10.33;;;10.00;99.90;;;;;;6237355;22;20247;-86
2021/10/08 00:36:27;;;;;;;48.10;9.57;;;10.00;99.90;;;;;;6237563;22;20243;-85
2021/10/08 00:38:53;;;;;;;44.93;9.63;;;9.90;99.90;;;;;;6187241;22;20165;-85
2021/10/08 00:41:21;;;;;;;25.60;7.97;;;9.90;99.90;;;;;;6187968;23;20583;-85
2021/10/08 00:43:47;;;;;;;73.90;10.73;;;9.90;99.90;;;;;;6237415;22;20254;-84
2021/10/08 00:46:14;;;;;;;40.53;10.70;;;9.90;99.90;;;;;;6237079;22;20197;-87
2021/10/08 00:48:40;;;;;;;41.70;7.17;;;9.90;99.90;;;;;;6237243;22;20280;-85
2021/10/08 00:51:06;;;;;;;52.17;9.57;;;9.90;99.90;;;;;;6237436;22;20602;-85
2021/10/08 00:53:32;;;;;;;42.17;8.73;;;9.90;99.90;;;;;;6213373;23;20161;-85
2021/10/08 00:55:58;;;;;;;30.93;9.13;;;9.90;99.90;;;;;;6211927;23;20208;-84
2021/10/08 00:58:24;;;;;;;74.97;12.00;;;9.80;99.90;;;;;;6237248;22;20200;-84
2021/10/08 01:00:52;;;;;;;15.83;8.93;;;9.80;99.90;;;;;;6212231;23;20271;-85
2021/10/08 01:03:19;;;;;;;33.20;9.57;;;9.80;99.90;;;;;;6237349;22;20196;-85
2021/10/08 01:05:45;;;;;;;34.47;10.00;;;9.80;99.90;;;;;;6212344;22;20554;-88
2021/10/08 01:08:11;;;;;;;29.37;8.33;;;9.90;99.90;;;;;;6238080;23;20223;-85
2021/10/08 01:10:40;;;;;;;17.53;8.43;;;10.00;99.90;;;;;;6187171;23;20204;-84
2021/10/08 01:13:07;;;;;;;55.80;9.80;;;9.90;99.90;;;;;;6212308;23;20193;-84
2021/10/08 01:15:33;;;;;;;18.03;9.50;;;9.90;99.90;;;;;;6239500;22;20661;-86
2021/10/08 01:17:59;;;;;;;33.40;11.47;;;9.90;99.90;;;;;;6214764;22;20220;-85
2021/10/08 01:20:26;;;;;;;31.77;7.37;;;9.90;99.90;;;;;;6190193;23;20162;-84
2021/10/08 01:23:00;;;;;;;39.27;11.13;;;9.80;99.90;;;;;;6214358;23;20527;-84
2021/10/08 01:25:31;;;;;;;26.83;8.03;;;9.80;99.90;;;;;;6240901;22;20638;-86
2021/10/08 01:27:57;;;;;;;20.37;9.00;;;9.70;99.90;;;;;;6239094;22;20201;-85
2021/10/08 01:30:25;;;;;;;27.57;8.83;;;9.70;99.90;;;;;;6238933;22;20201;-84
2021/10/08 01:32:51;;;;;;;50.20;11.30;;;9.80;99.90;;;;;;6239085;22;20157;-85
2021/10/08 01:35:17;;;;;;;75.73;11.20;;;9.80;99.90;;;;;;6239523;23;20166;-85
2021/10/08 01:37:43;;;;;;;43.13;10.83;;;9.90;99.90;;;;;;6239388;22;20276;-87
2021/10/08 01:40:11;;;;;;;39.73;10.10;;;9.90;99.90;;;;;;6213522;23;20205;-85
2021/10/08 01:42:36;;;;;;;64.30;10.43;;;10.00;99.90;;;;;;6238930;22;20925;-87
2021/10/08 01:45:03;;;;;;;19.17;7.67;;;10.00;99.90;;;;;;6238994;22;20205;-85
2021/10/08 01:47:29;;;;;;;21.00;8.70;;;9.80;99.90;;;;;;6214333;23;20160;-85
2021/10/08 01:49:55;;;;;;;27.17;8.03;;;9.70;99.90;;;;;;6213009;23;20201;-88
2021/10/08 01:52:21;;;;;;;49.53;10.53;;;9.70;99.90;;;;;;6238927;22;20197;-84
2021/10/08 01:54:48;;;;;;;29.37;10.13;;;9.80;99.90;;;;;;6238607;22;20197;-84
2021/10/08 01:57:14;;;;;;;37.07;9.37;;;9.80;99.90;;;;;;6238646;22;20276;-85
2021/10/08 01:59:39;;;;;;;64.17;10.03;;;9.70;99.90;;;;;;6214266;22;20189;-88
2021/10/08 02:02:05;;;;;;;61.27;13.90;;;9.80;99.90;;;;;;6189306;23;20469;-88
2021/10/08 02:04:31;;;;;;;74.93;10.13;;;9.90;99.90;;;;;;6213890;23;20327;-86
2021/10/08 02:06:57;;;;;;;43.50;8.80;;;10.00;99.90;;;;;;6213553;23;20666;-86
2021/10/08 02:09:23;;;;;;;26.73;9.20;;;9.80;99.90;;;;;;6238592;22;21023;-85
2021/10/08 02:11:49;;;;;;;79.27;10.83;;;9.70;99.90;;;;;;6213743;22;20158;-85
2021/10/08 02:14:15;;;;;;;10.90;6.33;;;9.70;99.90;;;;;;6214526;23;20209;-86
2021/10/08 02:16:40;;;;;;;52.23;10.27;;;9.60;99.90;;;;;;6238955;22;20199;-85
2021/10/08 02:19:07;;;;;;;69.83;8.17;;;9.60;99.90;;;;;;6238857;22;20199;-85
2021/10/08 02:21:33;;;;;;;22.13;7.77;;;9.60;99.90;;;;;;6238937;22;20197;-86
2021/10/08 02:23:59;;;;;;;49.63;8.90;;;9.50;99.90;;;;;;6214191;22;20272;-85
2021/10/08 02:26:24;;;;;;;31.87;8.70;;;9.60;99.90;;;;;;6213270;23;20169;-86
2021/10/08 02:28:50;;;;;;;31.10;11.17;;;9.50;99.90;;;;;;6213900;23;20197;-87
2021/10/08 02:31:16;;;;;;;62.47;10.97;;;9.60;99.90;;;;;;6238635;22;20216;-86
2021/10/08 02:33:43;;;;;;;37.43;7.13;;;9.60;99.90;;;;;;6238835;22;20193;-87
2021/10/08 02:36:10;;;;;;;25.87;7.63;;;9.60;99.90;;;;;;6238954;22;20201;-85
2021/10/08 02:38:36;;;;;;;23.30;9.33;;;9.50;99.90;;;;;;6213935;22;20634;-86
2021/10/08 02:41:03;;;;;;;64.50;6.87;;;9.40;99.90;;;;;;6238926;22;20197;-85
2021/10/08 02:43:30;;;;;;;21.23;8.07;;;9.40;99.90;;;;;;6188576;23;20272;-85
2021/10/08 02:45:56;;;;;;;21.40;7.10;;;9.30;99.90;;;;;;6240477;22;20197;-86
2021/10/08 02:48:22;;;;;;;44.37;7.00;;;9.30;99.90;;;;;;6240379;22;20251;-88
2021/10/08 02:50:48;;;;;;;55.60;8.13;;;9.30;99.90;;;;;;6213967;22;20268;-85
2021/10/08 02:53:14;;;;;;;34.00;7.53;;;9.30;99.90;;;;;;6213997;23;20613;-89
2021/10/08 02:55:41;;;;;;;40.13;8.20;;;9.20;99.90;;;;;;6213615;23;20272;-85
2021/10/08 02:58:07;;;;;;;50.67;8.47;;;9.20;99.90;;;;;;6188802;23;20193;-85
2021/10/08 03:00:34;;;;;;;25.60;8.43;;;9.30;99.90;;;;;;6238817;22;20195;-86
2021/10/08 03:03:00;;;;;;;19.07;8.23;;;9.30;99.90;;;;;;6238700;22;20216;-84
2021/10/08 03:05:26;;;;;;;76.27;10.27;;;9.40;99.90;;;;;;6188957;23;20589;-85
2021/10/08 03:07:51;;;;;;;30.33;7.67;;;9.40;99.90;;;;;;6188726;23;20247;-87
2021/10/08 03:10:19;;;;;;;36.73;9.27;;;9.40;99.90;;;;;;6213060;23;20201;-84
2021/10/08 03:12:48;;;;;;;28.87;8.53;;;9.40;99.90;;;;;;6238320;22;20204;-86
2021/10/08 03:15:15;;;;;;;24.13;8.93;;;9.40;99.90;;;;;;6240336;22;20238;-84
2021/10/08 03:17:42;;;;;;;59.13;9.50;;;9.50;99.90;;;;;;6238419;22;20168;-85
2021/10/08 03:20:10;;;;;;;10.03;6.17;;;9.40;99.90;;;;;;6213561;23;20618;-85
2021/10/08 03:22:37;;;;;;;12.37;8.13;;;9.30;99.90;;;;;;6212823;23;20661;-85
2021/10/08 03:25:07;;;;;;;24.57;5.10;;;9.30;99.90;;;;;;6188774;23;20235;-84
2021/10/08 03:27:34;;;;;;;34.17;7.60;;;9.30;99.90;;;;;;6213740;23;20292;-84
2021/10/08 03:29:59;;;;;;;41.63;7.87;;;9.20;99.90;;;;;;6187758;23;20200;-86
2021/10/08 03:32:25;;;;;;;20.90;6.10;;;9.10;99.90;;;;;;6213383;23;20215;-85
2021/10/08 03:34:51;;;;;;;36.70;8.00;;;9.10;99.90;;;;;;6188149;23;20201;-85
2021/10/08 03:37:19;;;;;;;52.03;8.43;;;9.10;99.90;;;;;;6212967;23;20197;-85
2021/10/08 03:39:48;;;;;;;16.73;7.60;;;9.20;99.90;;;;;;6189100;23;20255;-85
2021/10/08 03:42:17;;;;;;;30.93;9.70;;;9.10;99.90;;;;;;6189195;23;20195;-84
2021/10/08 03:44:46;;;;;;;12.20;6.33;;;9.20;99.90;;;;;;6238539;22;20871;-85
2021/10/08 03:47:19;;;;;;;38.37;9.33;;;9.20;99.90;;;;;;6214557;23;20487;-86
2021/10/08 03:49:45;;;;;;;75.23;8.73;;;9.20;99.90;;;;;;6237696;22;20658;-85
2021/10/08 03:52:11;;;;;;;13.40;7.83;;;9.20;99.90;;;;;;6212769;23;20201;-84
2021/10/08 03:54:37;;;;;;;31.07;7.40;;;9.10;99.90;;;;;;6237988;22;20300;-86
2021/10/08 03:57:03;;;;;;;21.80;7.77;;;9.10;99.90;;;;;;6212849;23;20635;-85
2021/10/08 03:59:29;;;;;;;74.83;8.57;;;9.10;99.90;;;;;;6187837;23;20176;-86
2021/10/08 04:01:55;;;;;;;44.40;7.63;;;9.10;99.90;;;;;;6237593;22;20203;-85
2021/10/08 04:04:21;;;;;;;35.43;7.93;;;9.00;99.90;;;;;;6187573;23;20292;-84
2021/10/08 04:06:47;;;;;;;24.90;8.00;;;9.00;99.90;;;;;;6212616;23;20201;-84
2021/10/08 04:09:13;;;;;;;68.43;7.87;;;9.10;99.90;;;;;;6211850;23;20203;-86
2021/10/08 04:11:39;;;;;;;43.57;7.97;;;9.10;99.90;;;;;;6237749;22;20153;-84
2021/10/08 04:14:05;;;;;;;60.00;8.93;;;9.10;99.90;;;;;;6188252;23;20169;-88
2021/10/08 04:16:31;;;;;;;66.63;9.17;;;9.10;99.90;;;;;;6212065;23;20189;-85
2021/10/08 04:18:57;;;;;;;33.23;7.40;;;9.20;99.90;;;;;;6212006;22;20258;-84
2021/10/08 04:21:22;;;;;;;35.43;7.10;;;9.10;99.90;;;;;;6237112;22;20193;-85
2021/10/08 04:23:48;;;;;;;48.37;7.33;;;9.10;99.90;;;;;;6212511;22;20480;-84
2021/10/08 04:26:14;;;;;;;28.83;6.43;;;9.00;99.90;;;;;;6213050;23;20165;-85
2021/10/08 04:28:39;;;;;;;73.03;8.23;;;9.00;99.90;;;;;;6187527;23;20193;-85
2021/10/08 04:31:05;;;;;;;23.10;5.97;;;9.00;99.90;;;;;;6212500;22;20231;-86
2021/10/08 04:33:31;;;;;;;30.20;8.43;;;9.10;99.90;;;;;;6187346;23;20295;-85
2021/10/08 04:35:59;;;;;;;15.50;8.07;;;9.10;99.90;;;;;;6212460;22;20189;-84
2021/10/08 04:38:27;;;;;;;15.73;6.43;;;9.10;99.90;;;;;;6213313;23;20158;-85
2021/10/08 04:40:53;;;;;;;18.23;7.53;;;9.00;99.90;;;;;;6211511;23;20216;-86
2021/10/08 04:43:19;;;;;;;32.53;5.97;;;8.90;99.90;;;;;;6212327;23;20201;-84
2021/10/08 04:45:45;;;;;;;29.23;6.43;;;8.70;99.90;;;;;;6211896;23;20250;-84
2021/10/08 04:48:11;;;;;;;44.33;8.57;;;8.70;99.90;;;;;;6212286;23;20197;-86
2021/10/08 04:50:37;;;;;;;19.47;6.07;;;8.60;99.90;;;;;;6212275;22;20618;-85
2021/10/08 04:53:13;;;;;;;7.10;5.13;;;8.60;99.90;;;;;;6237710;23;20219;-85
2021/10/08 04:55:39;;;;;;;8.23;5.60;;;8.60;99.90;;;;;;6237382;22;20193;-85
2021/10/08 04:58:05;;;;;;;77.83;8.67;;;8.50;99.90;;;;;;6187099;23;20193;-85
2021/10/08 05:00:30;;;;;;;30.27;6.53;;;8.50;99.90;;;;;;6212347;23;20197;-87
2021/10/08 05:02:56;;;;;;;23.70;4.73;;;8.50;99.90;;;;;;6184059;22;20217;-84
2021/10/08 05:05:22;;;;;;;37.90;5.17;;;8.40;99.90;;;;;;6211871;23;20157;-85
2021/10/08 05:07:48;;;;;;;17.03;4.20;;;8.40;99.90;;;;;;6211937;23;20201;-86
2021/10/08 05:10:13;;;;;;;20.33;7.00;;;8.50;99.90;;;;;;6211345;23;20266;-85
2021/10/08 05:12:39;;;;;;;9.23;3.43;;;8.40;99.90;;;;;;6186984;23;20259;-85
2021/10/08 05:15:05;;;;;;;11.23;3.13;;;8.40;99.90;;;;;;6211813;23;21052;-84
2021/10/08 05:17:31;;;;;;;38.70;5.73;;;8.30;99.90;;;;;;6238118;23;20226;-86
2021/10/08 05:19:57;;;;;;;22.20;6.30;;;8.20;99.90;;;;;;6212145;23;20212;-86
2021/10/08 05:22:22;;;;;;;42.53;4.43;;;8.20;99.90;;;;;;6187060;23;20197;-85
2021/10/08 05:24:49;;;;;;;31.17;6.20;;;8.10;99.90;;;;;;6212010;23;20858;-84
2021/10/08 05:27:15;;;;;;;7.30;4.37;;;8.10;99.90;;;;;;6212358;23;20201;-84
2021/10/08 05:29:41;;;;;;;5.07;4.37;;;8.10;99.90;;;;;;6210636;22;20260;-86
2021/10/08 05:32:07;;;;;;;11.00;6.30;;;8.10;99.90;;;;;;6237731;23;20571;-84
2021/10/08 05:34:33;;;;;;;11.33;6.83;;;8.10;99.90;;;;;;6236378;22;20193;-84
2021/10/08 05:36:58;;;;;;;15.53;4.43;;;8.10;99.90;;;;;;6236807;22;20522;-86
2021/10/08 05:39:24;;;;;;;7.37;4.50;;;8.20;99.90;;;;;;6211398;23;20288;-84
2021/10/08 05:41:50;;;;;;;5.67;3.33;;;8.10;99.90;;;;;;6186263;22;20576;-85
2021/10/08 05:44:15;;;;;;;14.17;4.23;;;8.10;99.90;;;;;;6187144;23;20164;-85
2021/10/08 05:46:41;;;;;;;9.87;4.60;;;8.10;99.90;;;;;;6210718;23;20696;-85
2021/10/08 05:49:07;;;;;;;32.57;5.70;;;8.10;99.90;;;;;;6211414;23;20201;-85
2021/10/08 05:51:33;;;;;;;19.93;5.63;;;8.10;99.90;;;;;;6211915;23;20529;-84
2021/10/08 05:53:58;;;;;;;41.43;7.30;;;8.10;99.90;;;;;;6186476;22;20714;-84
2021/10/08 05:56:24;;;;;;;8.40;5.70;;;8.20;99.90;;;;;;6187202;23;20166;-85
2021/10/08 05:58:50;;;;;;;10.97;6.27;;;8.20;99.90;;;;;;6186883;23;20200;-84
2021/10/08 06:01:16;;;;;;;21.40;5.07;;;8.30;99.90;;;;;;6187419;23;20275;-84
2021/10/08 06:03:41;;;;;;;24.33;5.07;;;8.20;99.90;;;;;;6213040;23;20189;-84
2021/10/08 06:06:07;;;;;;;23.00;5.10;;;8.20;99.90;;;;;;6238767;22;20220;-86
2021/10/08 06:08:33;;;;;;;43.50;4.97;;;8.30;99.90;;;;;;6213259;23;20489;-84
2021/10/08 06:10:59;;;;;;;11.97;5.70;;;8.20;99.90;;;;;;6187588;23;20209;-86
2021/10/08 06:13:25;;;;;;;34.50;8.10;;;8.20;99.90;;;;;;6238092;22;20197;-83
2021/10/08 06:15:51;;;;;;;12.67;5.10;;;8.20;99.90;;;;;;6187148;23;20197;-85
2021/10/08 06:18:17;;;;;;;14.77;5.30;;;8.20;99.90;;;;;;6213365;23;20193;-84
2021/10/08 06:20:43;;;;;;;12.50;5.80;;;8.20;99.90;;;;;;6188185;22;20161;-84
2021/10/08 06:23:09;;;;;;;25.23;4.77;;;8.20;99.90;;;;;;6189176;23;20204;-85
2021/10/08 06:25:35;;;;;;;24.13;4.80;;;8.10;99.90;;;;;;6188503;23;20203;-82
2021/10/08 06:28:00;;;;;;;19.40;6.03;;;8.20;99.90;;;;;;6188276;23;20192;-85
2021/10/08 06:30:26;;;;;;;54.43;5.23;;;8.20;99.90;;;;;;6188281;23;20284;-85
2021/10/08 06:32:54;;;;;;;62.40;6.60;;;8.10;99.90;;;;;;6188449;22;20487;-85
2021/10/08 06:35:20;;;;;;;43.17;7.03;;;8.10;99.90;;;;;;6240020;22;20211;-88
2021/10/08 06:37:46;;;;;;;25.60;4.60;;;8.00;99.90;;;;;;6214011;23;20283;-86
2021/10/08 06:40:12;;;;;;;29.37;5.50;;;8.00;99.90;;;;;;6188003;23;20677;-84
2021/10/08 06:42:38;;;;;;;38.37;6.23;;;7.90;99.90;;;;;;6212731;23;20209;-86
2021/10/08 06:45:05;;;;;;;9.60;5.50;;;8.00;99.90;;;;;;6213489;23;20193;-84
2021/10/08 06:47:32;;;;;;;36.10;4.63;;;8.00;99.90;;;;;;6240509;22;20522;-83
2021/10/08 06:49:58;;;;;;;11.30;5.03;;;8.00;99.90;;;;;;6212771;23;20589;-84
2021/10/08 06:52:24;;;;;;;45.53;4.97;;;8.10;99.90;;;;;;6212634;23;20212;-84
2021/10/08 06:54:50;;;;;;;27.63;4.50;;;8.10;99.90;;;;;;6213315;23;20623;-84
2021/10/08 06:57:16;;;;;;;10.47;3.80;;;8.10;99.90;;;;;;6212952;23;20189;-83
2021/10/08 06:59:41;;;;;;;42.30;5.80;;;8.20;99.90;;;;;;6187640;22;20874;-84
2021/10/08 07:02:08;;;;;;;48.90;5.83;;;8.20;99.90;;;;;;6213834;23;20162;-84
2021/10/08 07:04:33;;;;;;;6.77;4.63;;;8.20;99.90;;;;;;6212243;23;20197;-84
2021/10/08 07:06:59;;;;;;;20.33;4.13;;;8.30;99.90;;;;;;6213029;23;20283;-86
2021/10/08 07:09:25;;;;;;;45.10;6.17;;;8.20;99.90;;;;;;6212847;23;20201;-84
2021/10/08 07:11:50;;;;;;;19.10;4.77;;;8.30;99.90;;;;;;6187683;22;20488;-84
2021/10/08 07:14:16;;;;;;;12.80;4.60;;;8.20;99.90;;;;;;6213895;23;20149;-84
2021/10/08 07:16:42;;;;;;;19.60;3.90;;;8.20;99.90;;;;;;6212499;23;20801;-84
2021/10/08 07:19:09;;;;;;;28.10;6.10;;;8.30;99.90;;;;;;6187836;23;20217;-87
2021/10/08 07:21:36;;;;;;;6.90;3.73;;;8.40;99.90;;;;;;6188052;23;20335;-83
2021/10/08 07:24:02;;;;;;;23.27;5.87;;;8.50;99.90;;;;;;6212761;23;20499;-85
2021/10/08 07:26:31;;;;;;;14.23;6.80;;;8.50;99.90;;;;;;6213098;23;20609;-85
2021/10/08 07:28:56;;;;;;;17.73;5.03;;;8.60;99.90;;;;;;6237766;22;20201;-87
2021/10/08 07:31:22;;;;;;;29.27;5.13;;;8.70;99.90;;;;;;6212506;22;20212;-85
2021/10/08 07:33:48;;;;;;;11.50;3.93;;;8.60;99.90;;;;;;6237974;22;20232;-87
2021/10/08 07:36:14;;;;;;;17.03;5.23;;;8.70;99.90;;;;;;6187745;23;20254;-84
2021/10/08 07:38:40;;;;;;;19.00;5.47;;;8.80;99.90;;;;;;6237486;22;20179;-84
2021/10/08 07:41:07;;;;;;;27.43;5.83;;;8.70;99.90;;;;;;6213005;23;20200;-85
2021/10/08 07:43:33;;;;;;;48.83;5.93;;;8.90;99.90;;;;;;6212294;23;20192;-84
2021/10/08 07:45:59;;;;;;;26.60;4.53;;;9.10;99.90;;;;;;6187636;23;20208;-84
2021/10/08 07:48:25;;;;;;;11.93;5.53;;;9.20;99.90;;;;;;6212681;23;20197;-83
2021/10/08 07:50:50;;;;;;;11.00;5.60;;;9.40;99.90;;;;;;6211730;22;20189;-83
2021/10/08 07:53:16;;;;;;;16.50;4.13;;;9.50;99.90;;;;;;6213393;23;20265;-84
2021/10/08 07:55:42;;;;;;;6.73;4.10;;;9.50;99.90;;;;;;6211321;23;20200;-84
2021/10/08 07:58:07;;;;;;;7.93;3.90;;;9.50;99.90;;;;;;6212042;22;20193;-84
2021/10/08 08:00:33;;;;;;;37.30;5.23;;;9.40;99.90;;;;;;6211914;23;20197;-83
2021/10/08 08:02:59;;;;;;;21.57;4.40;;;9.30;99.90;;;;;;6237271;22;20193;-84
2021/10/08 08:05:25;;;;;;;10.07;4.97;;;9.40;99.90;;;;;;6187385;23;20165;-85
2021/10/08 08:07:51;;;;;;;17.73;6.77;;;9.50;99.90;;;;;;6187429;23;20197;-84
2021/10/08 08:10:17;;;;;;;67.03;6.80;;;9.70;99.90;;;;;;6237285;22;20765;-84
2021/10/08 08:12:43;;;;;;;23.77;5.67;;;9.80;99.90;;;;;;6237238;22;20193;-83
2021/10/08 08:15:10;;;;;;;9.40;4.30;;;9.90;99.90;;;;;;6212121;23;20193;-83
2021/10/08 08:17:36;;;;;;;27.03;6.13;;;9.90;99.90;;;;;;6211785;22;20157;-84
2021/10/08 08:20:05;;;;;;;36.97;6.10;;;10.20;99.90;;;;;;6212689;23;20489;-84
2021/10/08 08:22:31;;;;;;;9.30;4.90;;;10.60;99.90;;;;;;6211077;23;20646;-84
2021/10/08 08:24:57;;;;;;;37.87;7.23;;;10.80;99.90;;;;;;6186931;23;20207;-85
2021/10/08 08:27:22;;;;;;;18.47;5.73;;;10.80;99.90;;;;;;6211814;23;20225;-86
2021/10/08 08:29:48;;;;;;;16.10;6.83;;;10.70;99.90;;;;;;6186983;22;20196;-86
2021/10/08 08:32:15;;;;;;;11.50;6.73;;;10.90;99.90;;;;;;6212557;23;20161;-85
2021/10/08 08:34:41;;;;;;;32.73;5.77;;;11.10;99.90;;;;;;6236903;22;20705;-85
2021/10/08 08:37:07;;;;;;;27.97;7.03;;;10.60;99.90;;;;;;6237154;22;20712;-83
2021/10/08 08:39:37;;;;;;;29.47;5.53;;;10.70;99.90;;;;;;6237984;22;20197;-83
2021/10/08 08:42:03;;;;;;;9.63;5.23;;;11.00;99.90;;;;;;6187849;22;20213;-83
2021/10/08 08:44:28;;;;;;;10.07;4.73;;;11.20;99.90;;;;;;6212505;23;20222;-83
2021/10/08 08:46:57;;;;;;;29.77;6.13;;;11.30;99.90;;;;;;6186107;23;20197;-83
2021/10/08 08:49:23;;;;;;;15.40;7.33;;;11.30;99.90;;;;;;6236459;22;20197;-83
2021/10/08 08:51:49;;;;;;;34.83;7.33;;;11.40;99.90;;;;;;6211065;23;20193;-87
2021/10/08 08:54:15;;;;;;;15.30;7.80;;;11.60;99.90;;;;;;6211724;23;20185;-83
2021/10/08 08:56:40;;;;;;;14.23;6.47;;;11.60;99.90;;;;;;6212930;22;20248;-87
2021/10/08 08:59:09;;;;;;;17.60;10.90;;;11.70;99.90;;;;;;6239190;23;20169;-86
2021/10/08 09:02:03;;;;;;;14.37;6.27;;;11.60;99.90;;;;;;6238827;22;20197;-85
2021/10/08 09:04:29;;;;;;;10.90;6.10;;;11.20;99.90;;;;;;6237252;22;20227;-84
2021/10/08 09:06:56;;;;;;;14.50;8.20;;;11.50;99.90;;;;;;6187314;23;20193;-84
2021/10/08 09:09:24;;;;;;;12.23;5.33;;;11.60;99.90;;;;;;6212676;23;20503;-87
2021/10/08 09:11:51;;;;;;;14.07;7.97;;;11.60;99.90;;;;;;6237479;22;20177;-84
2021/10/08 09:14:27;;;;;;;10.73;6.40;;;11.60;99.90;;;;;;6238385;23;20177;-84
2021/10/08 09:17:15;;;;;;;9.33;6.13;;;11.60;99.90;;;;;;6237435;22;20254;-85
2021/10/08 09:20:00;;;;;;;15.13;9.10;;;11.50;99.90;;;;;;6237511;22;20205;-84
2021/10/08 09:22:49;;;;;;;14.97;6.83;;;11.70;99.90;;;;;;6236968;22;20192;-86
2021/10/08 09:25:29;;;;;;;11.80;5.97;;;11.70;99.90;;;;;;6236774;22;20228;-84
2021/10/08 09:28:03;;;;;;;11.40;6.17;;;11.80;99.90;;;;;;6238826;22;20203;-83
2021/10/08 09:30:38;;;;;;;12.80;7.33;;;12.00;99.90;;;;;;6237434;22;20215;-85
2021/10/08 09:33:06;;;;;;;14.83;7.50;;;12.20;99.90;;;;;;6237692;22;20666;-85
2021/10/08 09:35:33;;;;;;;18.90;9.47;;;12.20;99.90;;;;;;6238504;23;20248;-85
2021/10/08 09:38:13;;;;;;;17.27;8.47;;;12.40;99.90;;;;;;6210392;23;20205;-85
2021/10/08 09:40:45;;;;;;;18.40;8.63;;;12.50;99.90;;;;;;6238780;22;20747;-86
2021/10/08 09:43:27;;;;;;;11.33;7.03;;;12.30;99.90;;;;;;6238975;22;20193;-84
2021/10/08 09:45:55;;;;;;;21.77;10.73;;;12.30;99.90;;;;;;6239254;22;20224;-84
2021/10/08 09:48:43;;;;;;;19.13;9.80;;;12.30;99.90;;;;;;6239417;22;20255;-85
2021/10/08 09:51:15;;;;;;;18.73;7.37;;;12.60;99.90;;;;;;6214761;23;20197;-84
2021/10/08 09:53:46;;;;;;;23.50;10.87;;;12.80;99.90;;;;;;6239013;22;20178;-84
2021/10/08 09:56:42;;;;;;;18.57;9.40;;;12.90;99.90;;;;;;6239888;23;20243;-85
2021/10/08 09:59:10;;;;;;;23.47;12.07;;;13.10;99.90;;;;;;6189865;23;20577;-84
2021/10/08 10:01:37;;;;;;;20.67;10.47;;;13.20;99.90;;;;;;6239295;22;20279;-85
2021/10/08 10:04:05;;;;;;;24.97;11.83;;;13.60;99.90;;;;;;6238839;22;20197;-86
2021/10/08 10:06:32;;;;;;;28.57;12.33;;;14.10;99.90;;;;;;6238909;22;20212;-88
2021/10/08 10:09:01;;;;;;;29.50;16.03;;;14.40;99.90;;;;;;6213393;22;20201;-84
2021/10/08 10:11:27;;;;;;;27.40;14.37;;;14.90;99.90;;;;;;6214591;23;20204;-84
2021/10/08 10:13:57;;;;;;;30.43;19.07;;;15.40;99.90;;;;;;6188456;23;20943;-85
2021/10/08 10:16:24;;;;;;;27.63;17.43;;;15.90;99.90;;;;;;6238124;22;20886;-85
2021/10/08 10:18:52;;;;;;;34.97;18.70;;;16.20;99.90;;;;;;6213016;23;20193;-87
2021/10/08 10:21:27;;;;;;;33.57;18.13;;;16.90;99.90;;;;;;6238304;22;20189;-85
2021/10/08 10:23:55;;;;;;;29.67;16.67;;;17.30;99.90;;;;;;6238497;22;20152;-85
2021/10/08 10:26:23;;;;;;;26.77;16.97;;;17.10;99.90;;;;;;6239515;23;20327;-85
2021/10/08 10:28:49;;;;;;;27.57;15.23;;;16.60;99.90;;;;;;6238074;22;20201;-85
2021/10/08 10:31:16;;;;;;;31.80;16.63;;;16.60;99.90;;;;;;6238366;22;20256;-83
2021/10/08 10:33:42;;;;;;;25.10;14.87;;;16.90;99.90;;;;;;6239825;22;20647;-84
2021/10/08 10:36:30;;;;;;;28.30;16.57;;;16.90;99.90;;;;;;6213667;23;20246;-85
2021/10/08 10:39:20;;;;;;;21.50;14.33;;;17.10;99.90;;;;;;6223730;22;20221;-84
2021/10/08 10:42:01;;;;;;;24.73;11.80;;;17.50;99.90;;;;;;6226304;22;20212;-84
2021/10/08 10:47:14;;;;;;;19.83;12.63;;;17.00;99.90;;;;;;6212742;23;20207;-85
2021/10/08 10:49:49;;;;;;;23.77;12.87;;;16.90;99.90;;;;;;6238284;22;20258;-86
2021/10/08 10:52:17;;;;;;;21.40;11.90;;;17.40;99.90;;;;;;6214837;23;20996;-88
2021/10/08 10:54:49;;;;;;;23.00;12.87;;;17.50;99.90;;;;;;6234377;22;20678;-85
2021/10/08 10:57:30;;;;;;;23.33;13.63;;;17.40;99.90;;;;;;6238382;22;20610;-85
2021/10/08 11:00:33;;;;;;;24.03;12.40;;;17.80;99.90;;;;;;6238797;22;20682;-85
2021/10/08 11:03:07;;;;;;;25.90;13.27;;;17.30;99.90;;;;;;6238406;22;20196;-85
2021/10/08 11:05:38;;;;;;;22.50;12.47;;;17.00;99.90;;;;;;6235412;23;20912;-85
2021/10/08 11:08:08;;;;;;;21.97;13.07;;;17.30;99.90;;;;;;6238447;23;20231;-86
2021/10/08 11:10:40;;;;;;;20.23;12.77;;;17.40;99.90;;;;;;6239074;22;20213;-85
2021/10/08 11:13:24;;;;;;;23.97;12.97;;;17.50;99.90;;;;;;6238131;22;20200;-85
2021/10/08 11:16:10;;;;;;;22.00;11.43;;;17.90;99.90;;;;;;6237706;22;20220;-85
2021/10/08 11:18:39;;;;;;;21.37;12.13;;;17.80;99.90;;;;;;6237282;22;20193;-86
2021/10/08 11:21:05;;;;;;;20.33;11.30;;;18.20;99.90;;;;;;6238489;22;20216;-86
2021/10/08 11:23:36;;;;;;;23.83;12.17;;;18.50;99.90;;;;;;6238380;23;20164;-85
2021/10/08 11:26:11;;;;;;;23.33;12.30;;;18.80;99.90;;;;;;6214291;23;20157;-85
2021/10/08 11:28:40;;;;;;;21.73;12.93;;;18.40;99.90;;;;;;6239578;22;20193;-85
2021/10/08 11:31:08;;;;;;;23.23;13.30;;;18.20;99.90;;;;;;6237832;22;20211;-85
2021/10/08 11:33:38;;;;;;;22.00;12.23;;;18.60;99.90;;;;;;6239530;22;20203;-85
2021/10/08 11:36:14;;;;;;;19.73;11.43;;;19.30;99.90;;;;;;6239515;22;20201;-85
2021/10/08 11:38:40;;;;;;;19.17;11.33;;;18.60;99.90;;;;;;6238024;22;20150;-87
2021/10/08 11:41:20;;;;;;;21.13;11.03;;;18.30;99.90;;;;;;6238399;22;20630;-86
2021/10/08 11:43:49;;;;;;;16.23;10.47;;;17.70;99.90;;;;;;6237401;22;20275;-86
2021/10/08 11:46:40;;;;;;;17.40;10.97;;;17.50;99.90;;;;;;6237671;22;20204;-85
2021/10/08 11:49:27;;;;;;;25.47;12.97;;;17.80;99.90;;;;;;6238074;22;20248;-86
2021/10/08 11:51:57;;;;;;;19.30;10.23;;;17.30;99.90;;;;;;6217193;23;20272;-87
2021/10/08 11:54:23;;;;;;;23.57;11.93;;;17.20;99.90;;;;;;6239716;22;20189;-87
2021/10/08 11:57:04;;;;;;;18.13;10.00;;;17.10;99.90;;;;;;6237890;22;20158;-88
2021/10/08 11:59:31;;;;;;;19.83;10.63;;;17.20;99.90;;;;;;6238438;23;20169;-87
2021/10/08 12:02:14;;;;;;;16.47;10.27;;;17.50;99.90;;;;;;6236935;22;20193;-87
2021/10/08 12:05:00;;;;;;;21.47;12.43;;;17.50;99.90;;;;;;6237220;22;20188;-86
2021/10/08 12:07:29;;;;;;;21.70;11.17;;;17.40;99.90;;;;;;6237536;22;20189;-88
2021/10/08 12:10:12;;;;;;;24.93;12.53;;;17.50;99.90;;;;;;6212568;23;20200;-85
2021/10/08 12:12:59;;;;;;;19.27;11.37;;;17.60;99.90;;;;;;6211891;23;20658;-84
2021/10/08 12:15:27;;;;;;;20.40;11.80;;;17.60;99.90;;;;;;6236928;22;20235;-86
2021/10/08 12:17:55;;;;;;;18.57;10.97;;;17.50;99.90;;;;;;6238601;22;20165;-85
2021/10/08 12:20:23;;;;;;;17.73;10.37;;;17.70;99.90;;;;;;6237964;23;20236;-86
2021/10/08 12:22:50;;;;;;;21.87;11.33;;;17.40;99.90;;;;;;6237137;22;20201;-86
2021/10/08 12:25:18;;;;;;;20.37;11.43;;;17.10;99.90;;;;;;6211873;23;20208;-88
2021/10/08 12:27:45;;;;;;;18.60;11.67;;;17.20;99.90;;;;;;6236180;22;20224;-85
2021/10/08 12:30:12;;;;;;;20.63;12.80;;;17.20;99.90;;;;;;6236152;22;20279;-87
2021/10/08 12:32:38;;;;;;;25.70;12.23;;;17.10;99.90;;;;;;6211516;22;20541;-85
2021/10/08 12:35:13;;;;;;;25.70;11.63;;;17.10;99.90;;;;;;6211739;23;20161;-85
2021/10/08 12:37:40;;;;;;;20.40;10.87;;;17.10;99.90;;;;;;6236336;22;20200;-86
2021/10/08 12:40:12;;;;;;;32.97;12.60;;;17.20;99.90;;;;;;6211441;23;20201;-85
2021/10/08 12:42:42;;;;;;;17.80;9.63;;;17.20;99.90;;;;;;6236237;22;20656;-89
2021/10/08 12:45:20;;;;;;;20.67;10.70;;;17.00;99.90;;;;;;6237344;22;20297;-86
2021/10/08 12:47:47;;;;;;;22.47;10.77;;;17.20;99.90;;;;;;6237046;22;20145;-86
2021/10/08 12:50:19;;;;;;;21.90;10.27;;;17.20;99.90;;;;;;6212631;23;20641;-86